sensor_id;sensor_type;location;lat;lon;timestamp;temperature;humidity
31799;DHT22;18374;51.136;3.502;2023-06-24T00:00:02;16.40;99.90
31799;DHT22;18374;51.136;3.502;2023-06-24T00:02:35;16.40;99.90
31799;DHT22;18374;51.136;3.502;2023-06-24T00:05:06;16.30;99.90
31799;DHT22;18374;51.136;3.502;2023-06-24T00:07:36;16.30;99.90
31799;DHT22;18374;51.136;3.502;2023-06-24T00:10:15;16.20;99.90
31799;DHT22;18374;51.136;3.502;2023-06-24T00:12:45;16.20;99.90
31799;DHT22;18374;51.136;3.502;2023-06-24T00:15:13;16.20;99.90
31799;DHT22;18374;51.136;3.502;2023-06-24T00:17:40;16.20;99.90
31799;DHT22;18374;51.136;3.502;2023-06-24T00:20:09;16.30;99.90
31799;DHT22;18374;51.136;3.502;2023-06-24T00:22:38;16.20;99.90
31799;DHT22;18374;51.136;3.502;2023-06-24T00:25:16;16.20;99.90
31799;DHT22;18374;51.136;3.502;2023-06-24T00:27:45;16.20;99.90
31799;DHT22;18374;51.136;3.502;2023-06-24T00:30:14;16.20;99.90
31799;DHT22;18374;51.136;3.502;2023-06-24T00:32:42;16.20;99.90
31799;DHT22;18374;51.136;3.502;2023-06-24T00:35:10;16.20;99.90
31799;DHT22;18374;51.136;3.502;2023-06-24T00:37:41;16.20;99.90
31799;DHT22;18374;51.136;3.502;2023-06-24T00:40:10;16.20;99.90
31799;DHT22;18374;51.136;3.502;2023-06-24T00:42:38;16.10;99.90
31799;DHT22;18374;51.136;3.502;2023-06-24T00:45:07;16.10;99.90
31799;DHT22;18374;51.136;3.502;2023-06-24T00:47:35;16.10;99.90
31799;DHT22;18374;51.136;3.502;2023-06-24T00:50:03;16.10;99.90
31799;DHT22;18374;51.136;3.502;2023-06-24T00:52:31;16.10;99.90
31799;DHT22;18374;51.136;3.502;2023-06-24T00:55:00;16.10;99.90
31799;DHT22;18374;51.136;3.502;2023-06-24T00:57:30;16.10;99.90
31799;DHT22;18374;51.136;3.502;2023-06-24T00:59:59;16.10;99.90
31799;DHT22;18374;51.136;3.502;2023-06-24T01:02:28;16.10;99.90
31799;DHT22;18374;51.136;3.502;2023-06-24T01:04:56;16.10;99.90
31799;DHT22;18374;51.136;3.502;2023-06-24T01:07:24;16.10;99.90
31799;DHT22;18374;51.136;3.502;2023-06-24T01:09:52;16.10;99.90
31799;DHT22;18374;51.136;3.502;2023-06-24T01:12:20;16.10;99.90
31799;DHT22;18374;51.136;3.502;2023-06-24T01:14:48;16.00;99.90
31799;DHT22;18374;51.136;3.502;2023-06-24T01:17:32;16.10;99.90
31799;DHT22;18374;51.136;3.502;2023-06-24T01:20:34;16.00;99.90
31799;DHT22;18374;51.136;3.502;2023-06-24T01:29:36;16.10;99.90
31799;DHT22;18374;51.136;3.502;2023-06-24T01:32:22;16.10;99.90
31799;DHT22;18374;51.136;3.502;2023-06-24T01:34:56;16.10;99.90
31799;DHT22;18374;51.136;3.502;2023-06-24T01:37:48;16.00;99.90
31799;DHT22;18374;51.136;3.502;2023-06-24T01:40:34;16.10;99.90
31799;DHT22;18374;51.136;3.502;2023-06-24T01:43:08;16.10;99.90
31799;DHT22;18374;51.136;3.502;2023-06-24T01:45:50;16.10;99.90
31799;DHT22;18374;51.136;3.502;2023-06-24T01:48:25;16.10;99.90
31799;DHT22;18374;51.136;3.502;2023-06-24T01:50:59;16.10;99.90
31799;DHT22;18374;51.136;3.502;2023-06-24T01:53:29;16.10;99.90
31799;DHT22;18374;51.136;3.502;2023-06-24T01:56:02;16.00;99.90
31799;DHT22;18374;51.136;3.502;2023-06-24T01:58:31;16.00;99.90
31799;DHT22;18374;51.136;3.502;2023-06-24T02:01:03;16.00;99.90
31799;DHT22;18374;51.136;3.502;2023-06-24T02:03:32;16.00;99.90
31799;DHT22;18374;51.136;3.502;2023-06-24T02:06:04;15.90;99.90
31799;DHT22;18374;51.136;3.502;2023-06-24T02:08:36;15.90;99.90
31799;DHT22;18374;51.136;3.502;2023-06-24T02:11:07;15.80;99.90
31799;DHT22;18374;51.136;3.502;2023-06-24T02:13:37;15.80;99.90
31799;DHT22;18374;51.136;3.502;2023-06-24T02:16:13;15.70;99.90
31799;DHT22;18374;51.136;3.502;2023-06-24T02:18:43;15.80;99.90
31799;DHT22;18374;51.136;3.502;2023-06-24T02:21:11;15.70;99.90
31799;DHT22;18374;51.136;3.502;2023-06-24T02:23:41;15.70;99.90
31799;DHT22;18374;51.136;3.502;2023-06-24T02:26:10;15.70;99.90
31799;DHT22;18374;51.136;3.502;2023-06-24T02:28:38;15.70;99.90
31799;DHT22;18374;51.136;3.502;2023-06-24T02:31:08;15.70;99.90
31799;DHT22;18374;51.136;3.502;2023-06-24T02:33:36;15.70;99.90
31799;DHT22;18374;51.136;3.502;2023-06-24T02:36:04;15.60;99.90
31799;DHT22;18374;51.136;3.502;2023-06-24T02:38:32;15.50;99.90
31799;DHT22;18374;51.136;3.502;2023-06-24T02:41:01;15.40;99.90
31799;DHT22;18374;51.136;3.502;2023-06-24T02:43:32;15.40;99.90
31799;DHT22;18374;51.136;3.502;2023-06-24T02:48:33;15.30;99.90
31799;DHT22;18374;51.136;3.502;2023-06-24T02:51:03;15.30;99.90
31799;DHT22;18374;51.136;3.502;2023-06-24T02:53:32;15.20;99.90
31799;DHT22;18374;51.136;3.502;2023-06-24T02:56:01;15.20;99.90
31799;DHT22;18374;51.136;3.502;2023-06-24T02:58:32;15.20;99.90
31799;DHT22;18374;51.136;3.502;2023-06-24T03:01:11;15.10;99.90
31799;DHT22;18374;51.136;3.502;2023-06-24T03:03:54;15.10;99.90
31799;DHT22;18374;51.136;3.502;2023-06-24T03:06:23;15.10;99.90
31799;DHT22;18374;51.136;3.502;2023-06-24T03:08:55;15.10;99.90
31799;DHT22;18374;51.136;3.502;2023-06-24T03:11:23;15.10;99.90
31799;DHT22;18374;51.136;3.502;2023-06-24T03:13:53;15.00;99.90
31799;DHT22;18374;51.136;3.502;2023-06-24T03:16:23;15.00;99.90
31799;DHT22;18374;51.136;3.502;2023-06-24T03:19:02;15.00;99.90
31799;DHT22;18374;51.136;3.502;2023-06-24T03:21:30;15.00;99.90
31799;DHT22;18374;51.136;3.502;2023-06-24T03:24:11;15.00;99.90
31799;DHT22;18374;51.136;3.502;2023-06-24T03:26:40;15.00;99.90
31799;DHT22;18374;51.136;3.502;2023-06-24T03:29:12;14.90;99.90
31799;DHT22;18374;51.136;3.502;2023-06-24T03:31:48;14.90;99.90
31799;DHT22;18374;51.136;3.502;2023-06-24T03:34:21;14.90;99.90
31799;DHT22;18374;51.136;3.502;2023-06-24T03:36:49;14.90;99.90
31799;DHT22;18374;51.136;3.502;2023-06-24T03:39:17;14.90;99.90
31799;DHT22;18374;51.136;3.502;2023-06-24T03:41:45;14.80;99.90
31799;DHT22;18374;51.136;3.502;2023-06-24T03:44:15;14.80;99.90
31799;DHT22;18374;51.136;3.502;2023-06-24T03:46:43;14.80;99.90
31799;DHT22;18374;51.136;3.502;2023-06-24T03:49:12;14.80;99.90
31799;DHT22;18374;51.136;3.502;2023-06-24T03:51:40;14.80;99.90
31799;DHT22;18374;51.136;3.502;2023-06-24T03:54:09;14.80;99.90
31799;DHT22;18374;51.136;3.502;2023-06-24T03:56:37;14.80;99.90
31799;DHT22;18374;51.136;3.502;2023-06-24T03:59:05;14.80;99.90
31799;DHT22;18374;51.136;3.502;2023-06-24T04:01:33;14.70;99.90
31799;DHT22;18374;51.136;3.502;2023-06-24T04:04:01;14.80;99.90
31799;DHT22;18374;51.136;3.502;2023-06-24T04:06:29;14.80;99.90
31799;DHT22;18374;51.136;3.502;2023-06-24T04:08:57;14.80;99.90
31799;DHT22;18374;51.136;3.502;2023-06-24T04:11:26;14.70;99.90
31799;DHT22;18374;51.136;3.502;2023-06-24T04:13:53;14.80;99.90
31799;DHT22;18374;51.136;3.502;2023-06-24T04:16:21;14.80;99.90
31799;DHT22;18374;51.136;3.502;2023-06-24T04:18:49;14.80;99.90
31799;DHT22;18374;51.136;3.502;2023-06-24T04:21:17;14.80;99.90
31799;DHT22;18374;51.136;3.502;2023-06-24T04:23:45;14.80;99.90
31799;DHT22;18374;51.136;3.502;2023-06-24T04:26:13;14.90;99.90
31799;DHT22;18374;51.136;3.502;2023-06-24T04:28:42;14.90;99.90
31799;DHT22;18374;51.136;3.502;2023-06-24T04:31:10;14.90;99.90
31799;DHT22;18374;51.136;3.502;2023-06-24T04:33:38;14.90;99.90
31799;DHT22;18374;51.136;3.502;2023-06-24T04:36:07;15.00;99.90
31799;DHT22;18374;51.136;3.502;2023-06-24T04:38:36;15.00;99.90
31799;DHT22;18374;51.136;3.502;2023-06-24T04:41:03;15.00;99.90
31799;DHT22;18374;51.136;3.502;2023-06-24T04:43:31;15.10;99.90
31799;DHT22;18374;51.136;3.502;2023-06-24T04:45:59;15.20;99.90
31799;DHT22;18374;51.136;3.502;2023-06-24T04:48:27;15.20;99.90
31799;DHT22;18374;51.136;3.502;2023-06-24T04:50:55;15.30;99.90
31799;DHT22;18374;51.136;3.502;2023-06-24T04:53:23;15.30;99.90
31799;DHT22;18374;51.136;3.502;2023-06-24T04:55:51;15.40;99.90
31799;DHT22;18374;51.136;3.502;2023-06-24T04:58:19;15.40;99.90
31799;DHT22;18374;51.136;3.502;2023-06-24T05:00:46;15.40;99.90
31799;DHT22;18374;51.136;3.502;2023-06-24T05:03:14;15.50;99.90
31799;DHT22;18374;51.136;3.502;2023-06-24T05:05:42;15.50;99.90
31799;DHT22;18374;51.136;3.502;2023-06-24T05:08:11;15.60;99.90
31799;DHT22;18374;51.136;3.502;2023-06-24T05:10:38;15.70;99.90
31799;DHT22;18374;51.136;3.502;2023-06-24T05:13:06;15.70;99.90
31799;DHT22;18374;51.136;3.502;2023-06-24T05:15:34;15.80;99.90
31799;DHT22;18374;51.136;3.502;2023-06-24T05:18:02;15.90;99.90
31799;DHT22;18374;51.136;3.502;2023-06-24T05:20:30;15.90;99.90
31799;DHT22;18374;51.136;3.502;2023-06-24T05:22:57;16.00;99.90
31799;DHT22;18374;51.136;3.502;2023-06-24T05:25:25;16.10;99.90
31799;DHT22;18374;51.136;3.502;2023-06-24T05:27:53;16.20;99.90
31799;DHT22;18374;51.136;3.502;2023-06-24T05:30:21;16.20;99.90
31799;DHT22;18374;51.136;3.502;2023-06-24T05:32:48;16.20;99.90
31799;DHT22;18374;51.136;3.502;2023-06-24T05:35:16;16.30;99.90
31799;DHT22;18374;51.136;3.502;2023-06-24T05:37:44;16.40;99.90
31799;DHT22;18374;51.136;3.502;2023-06-24T05:40:12;16.50;99.90
31799;DHT22;18374;51.136;3.502;2023-06-24T05:42:40;16.50;99.90
31799;DHT22;18374;51.136;3.502;2023-06-24T05:45:08;16.60;99.90
31799;DHT22;18374;51.136;3.502;2023-06-24T05:47:37;16.70;99.90
31799;DHT22;18374;51.136;3.502;2023-06-24T05:50:06;16.70;99.90
31799;DHT22;18374;51.136;3.502;2023-06-24T05:52:34;16.80;99.90
31799;DHT22;18374;51.136;3.502;2023-06-24T05:55:02;16.90;99.90
31799;DHT22;18374;51.136;3.502;2023-06-24T05:57:30;17.00;99.90
31799;DHT22;18374;51.136;3.502;2023-06-24T05:59:57;17.00;99.90
31799;DHT22;18374;51.136;3.502;2023-06-24T06:02:25;17.10;99.90
31799;DHT22;18374;51.136;3.502;2023-06-24T06:04:53;17.20;99.90
31799;DHT22;18374;51.136;3.502;2023-06-24T06:07:21;17.20;99.90
31799;DHT22;18374;51.136;3.502;2023-06-24T06:09:49;17.30;99.90
31799;DHT22;18374;51.136;3.502;2023-06-24T06:12:16;17.40;99.90
31799;DHT22;18374;51.136;3.502;2023-06-24T06:14:44;17.50;99.90
31799;DHT22;18374;51.136;3.502;2023-06-24T06:17:13;17.60;99.90
31799;DHT22;18374;51.136;3.502;2023-06-24T06:19:41;17.70;99.90
31799;DHT22;18374;51.136;3.502;2023-06-24T06:22:09;17.80;99.90
31799;DHT22;18374;51.136;3.502;2023-06-24T06:24:37;17.90;99.90
31799;DHT22;18374;51.136;3.502;2023-06-24T06:27:09;18.00;99.90
31799;DHT22;18374;51.136;3.502;2023-06-24T06:29:38;18.00;99.90
31799;DHT22;18374;51.136;3.502;2023-06-24T06:32:06;18.10;99.90
31799;DHT22;18374;51.136;3.502;2023-06-24T06:34:34;18.20;99.90
31799;DHT22;18374;51.136;3.502;2023-06-24T06:37:02;18.30;99.90
31799;DHT22;18374;51.136;3.502;2023-06-24T06:39:30;18.40;99.90
31799;DHT22;18374;51.136;3.502;2023-06-24T06:41:58;18.40;99.90
31799;DHT22;18374;51.136;3.502;2023-06-24T06:44:25;18.60;99.90
31799;DHT22;18374;51.136;3.502;2023-06-24T06:46:53;18.70;99.90
31799;DHT22;18374;51.136;3.502;2023-06-24T06:49:21;18.80;99.90
31799;DHT22;18374;51.136;3.502;2023-06-24T06:51:49;18.90;99.90
31799;DHT22;18374;51.136;3.502;2023-06-24T06:54:17;19.00;99.90
31799;DHT22;18374;51.136;3.502;2023-06-24T06:56:45;19.10;99.90
31799;DHT22;18374;51.136;3.502;2023-06-24T06:59:13;19.10;99.90
31799;DHT22;18374;51.136;3.502;2023-06-24T07:01:40;19.30;99.90
31799;DHT22;18374;51.136;3.502;2023-06-24T07:04:08;19.40;99.90
31799;DHT22;18374;51.136;3.502;2023-06-24T07:06:36;19.60;99.90
31799;DHT22;18374;51.136;3.502;2023-06-24T07:09:04;19.70;99.90
31799;DHT22;18374;51.136;3.502;2023-06-24T07:11:31;19.80;99.90
31799;DHT22;18374;51.136;3.502;2023-06-24T07:13:59;19.90;99.90
31799;DHT22;18374;51.136;3.502;2023-06-24T07:16:27;20.00;99.90
31799;DHT22;18374;51.136;3.502;2023-06-24T07:18:55;20.10;99.90
31799;DHT22;18374;51.136;3.502;2023-06-24T07:21:22;20.20;99.90
31799;DHT22;18374;51.136;3.502;2023-06-24T07:23:50;20.20;99.90
31799;DHT22;18374;51.136;3.502;2023-06-24T07:26:18;20.30;99.90
31799;DHT22;18374;51.136;3.502;2023-06-24T07:28:46;20.40;99.90
31799;DHT22;18374;51.136;3.502;2023-06-24T07:31:30;20.50;99.90
31799;DHT22;18374;51.136;3.502;2023-06-24T07:33:58;20.70;99.90
31799;DHT22;18374;51.136;3.502;2023-06-24T07:36:26;20.80;99.90
31799;DHT22;18374;51.136;3.502;2023-06-24T07:38:54;20.90;99.90
31799;DHT22;18374;51.136;3.502;2023-06-24T07:41:21;21.00;99.90
31799;DHT22;18374;51.136;3.502;2023-06-24T07:43:49;21.10;99.90
31799;DHT22;18374;51.136;3.502;2023-06-24T07:46:17;21.20;99.90
31799;DHT22;18374;51.136;3.502;2023-06-24T07:48:45;21.30;99.90
31799;DHT22;18374;51.136;3.502;2023-06-24T07:51:13;21.40;99.90
31799;DHT22;18374;51.136;3.502;2023-06-24T07:53:41;21.40;99.90
31799;DHT22;18374;51.136;3.502;2023-06-24T07:56:08;21.50;99.90
31799;DHT22;18374;51.136;3.502;2023-06-24T07:58:36;21.50;99.90
31799;DHT22;18374;51.136;3.502;2023-06-24T08:01:07;21.60;99.90
31799;DHT22;18374;51.136;3.502;2023-06-24T08:03:34;21.70;99.90
31799;DHT22;18374;51.136;3.502;2023-06-24T08:06:04;21.70;99.90
31799;DHT22;18374;51.136;3.502;2023-06-24T08:08:32;21.80;99.90
31799;DHT22;18374;51.136;3.502;2023-06-24T08:11:00;22.00;99.90
31799;DHT22;18374;51.136;3.502;2023-06-24T08:13:29;22.10;99.90
31799;DHT22;18374;51.136;3.502;2023-06-24T08:15:57;22.20;99.90
31799;DHT22;18374;51.136;3.502;2023-06-24T08:18:24;22.30;99.90
31799;DHT22;18374;51.136;3.502;2023-06-24T08:20:52;22.40;99.90
31799;DHT22;18374;51.136;3.502;2023-06-24T08:23:20;22.50;99.90
31799;DHT22;18374;51.136;3.502;2023-06-24T08:25:47;22.50;99.90
31799;DHT22;18374;51.136;3.502;2023-06-24T08:28:15;22.60;99.90
31799;DHT22;18374;51.136;3.502;2023-06-24T08:30:43;22.60;99.90
31799;DHT22;18374;51.136;3.502;2023-06-24T08:33:11;22.70;99.90
31799;DHT22;18374;51.136;3.502;2023-06-24T08:35:38;22.80;99.90
31799;DHT22;18374;51.136;3.502;2023-06-24T08:38:06;22.90;99.90
31799;DHT22;18374;51.136;3.502;2023-06-24T08:40:34;22.90;99.90
31799;DHT22;18374;51.136;3.502;2023-06-24T08:43:01;22.90;99.90
31799;DHT22;18374;51.136;3.502;2023-06-24T08:45:29;23.00;99.90
31799;DHT22;18374;51.136;3.502;2023-06-24T08:47:58;23.20;99.90
31799;DHT22;18374;51.136;3.502;2023-06-24T08:50:36;23.30;99.90
31799;DHT22;18374;51.136;3.502;2023-06-24T08:53:10;23.50;99.90
31799;DHT22;18374;51.136;3.502;2023-06-24T08:55:43;23.50;99.90
31799;DHT22;18374;51.136;3.502;2023-06-24T08:58:13;23.60;99.90
31799;DHT22;18374;51.136;3.502;2023-06-24T09:00:41;23.70;99.90
31799;DHT22;18374;51.136;3.502;2023-06-24T09:03:10;23.70;99.90
31799;DHT22;18374;51.136;3.502;2023-06-24T09:05:38;23.70;99.90
31799;DHT22;18374;51.136;3.502;2023-06-24T09:08:06;23.80;99.90
31799;DHT22;18374;51.136;3.502;2023-06-24T09:10:35;23.80;99.90
31799;DHT22;18374;51.136;3.502;2023-06-24T09:13:05;24.00;99.90
31799;DHT22;18374;51.136;3.502;2023-06-24T09:15:38;24.10;99.90
31799;DHT22;18374;51.136;3.502;2023-06-24T09:18:06;24.20;99.90
31799;DHT22;18374;51.136;3.502;2023-06-24T09:20:34;24.10;99.90
31799;DHT22;18374;51.136;3.502;2023-06-24T09:23:07;24.10;99.90
31799;DHT22;18374;51.136;3.502;2023-06-24T09:25:35;24.20;99.90
31799;DHT22;18374;51.136;3.502;2023-06-24T09:28:04;24.30;99.90
31799;DHT22;18374;51.136;3.502;2023-06-24T09:30:31;24.50;99.90
31799;DHT22;18374;51.136;3.502;2023-06-24T09:32:59;24.60;99.90
31799;DHT22;18374;51.136;3.502;2023-06-24T09:35:27;24.60;99.90
31799;DHT22;18374;51.136;3.502;2023-06-24T09:37:56;24.60;99.90
31799;DHT22;18374;51.136;3.502;2023-06-24T09:40:26;24.60;99.90
31799;DHT22;18374;51.136;3.502;2023-06-24T09:42:57;24.70;99.90
31799;DHT22;18374;51.136;3.502;2023-06-24T09:45:29;24.80;99.90
31799;DHT22;18374;51.136;3.502;2023-06-24T09:47:57;24.90;99.90
31799;DHT22;18374;51.136;3.502;2023-06-24T09:50:25;25.10;99.90
31799;DHT22;18374;51.136;3.502;2023-06-24T09:52:56;25.20;99.90
31799;DHT22;18374;51.136;3.502;2023-06-24T09:55:25;25.30;99.90
31799;DHT22;18374;51.136;3.502;2023-06-24T09:57:53;25.30;99.90
31799;DHT22;18374;51.136;3.502;2023-06-24T10:00:23;25.40;99.90
31799;DHT22;18374;51.136;3.502;2023-06-24T10:02:53;25.40;99.90
31799;DHT22;18374;51.136;3.502;2023-06-24T10:05:26;25.60;99.90
31799;DHT22;18374;51.136;3.502;2023-06-24T10:07:54;25.60;99.90
31799;DHT22;18374;51.136;3.502;2023-06-24T10:10:22;25.70;99.90
31799;DHT22;18374;51.136;3.502;2023-06-24T10:12:50;25.80;99.90
31799;DHT22;18374;51.136;3.502;2023-06-24T10:15:17;25.90;99.90
31799;DHT22;18374;51.136;3.502;2023-06-24T10:17:46;25.80;99.90
31799;DHT22;18374;51.136;3.502;2023-06-24T10:20:23;25.90;99.90
31799;DHT22;18374;51.136;3.502;2023-06-24T10:22:52;25.90;99.90
31799;DHT22;18374;51.136;3.502;2023-06-24T10:25:20;26.00;99.00
31799;DHT22;18374;51.136;3.502;2023-06-24T10:27:53;25.90;98.60
31799;DHT22;18374;51.136;3.502;2023-06-24T10:30:21;25.90;99.10
31799;DHT22;18374;51.136;3.502;2023-06-24T10:32:55;26.10;99.70
31799;DHT22;18374;51.136;3.502;2023-06-24T10:35:27;26.20;99.90
31799;DHT22;18374;51.136;3.502;2023-06-24T10:38:00;26.30;99.70
31799;DHT22;18374;51.136;3.502;2023-06-24T10:40:48;26.20;98.90
31799;DHT22;18374;51.136;3.502;2023-06-24T10:45:50;26.40;97.10
31799;DHT22;18374;51.136;3.502;2023-06-24T10:48:22;26.40;97.30
31799;DHT22;18374;51.136;3.502;2023-06-24T10:50:50;26.40;98.00
31799;DHT22;18374;51.136;3.502;2023-06-24T10:53:18;26.60;97.20
31799;DHT22;18374;51.136;3.502;2023-06-24T10:55:46;26.70;95.80
31799;DHT22;18374;51.136;3.502;2023-06-24T10:58:16;26.80;95.60
31799;DHT22;18374;51.136;3.502;2023-06-24T11:00:44;26.70;96.60
31799;DHT22;18374;51.136;3.502;2023-06-24T11:03:15;26.70;96.90
31799;DHT22;18374;51.136;3.502;2023-06-24T11:05:46;26.80;96.20
31799;DHT22;18374;51.136;3.502;2023-06-24T11:08:15;27.00;97.60
31799;DHT22;18374;51.136;3.502;2023-06-24T11:10:47;27.00;95.40
31799;DHT22;18374;51.136;3.502;2023-06-24T11:13:15;26.80;96.60
31799;DHT22;18374;51.136;3.502;2023-06-24T11:15:43;26.90;96.70
31799;DHT22;18374;51.136;3.502;2023-06-24T11:18:11;27.00;96.70
31799;DHT22;18374;51.136;3.502;2023-06-24T11:20:39;26.80;97.10
31799;DHT22;18374;51.136;3.502;2023-06-24T11:23:09;27.00;97.40
31799;DHT22;18374;51.136;3.502;2023-06-24T11:25:41;27.10;96.80
31799;DHT22;18374;51.136;3.502;2023-06-24T11:28:17;27.20;96.20
31799;DHT22;18374;51.136;3.502;2023-06-24T11:30:49;27.40;97.80
31799;DHT22;18374;51.136;3.502;2023-06-24T11:33:27;27.30;95.90
31799;DHT22;18374;51.136;3.502;2023-06-24T11:35:56;27.10;96.00
31799;DHT22;18374;51.136;3.502;2023-06-24T11:38:23;27.20;96.80
31799;DHT22;18374;51.136;3.502;2023-06-24T11:40:57;27.20;95.70
31799;DHT22;18374;51.136;3.502;2023-06-24T11:43:26;27.20;96.20
31799;DHT22;18374;51.136;3.502;2023-06-24T11:45:53;27.20;95.50
31799;DHT22;18374;51.136;3.502;2023-06-24T11:48:21;27.20;96.20
31799;DHT22;18374;51.136;3.502;2023-06-24T11:50:55;27.10;95.70
31799;DHT22;18374;51.136;3.502;2023-06-24T11:53:49;27.00;96.00
31799;DHT22;18374;51.136;3.502;2023-06-24T11:56:17;26.90;95.90
31799;DHT22;18374;51.136;3.502;2023-06-24T11:58:45;26.90;95.90
31799;DHT22;18374;51.136;3.502;2023-06-24T12:01:18;27.10;94.40
31799;DHT22;18374;51.136;3.502;2023-06-24T12:03:46;27.30;94.10
31799;DHT22;18374;51.136;3.502;2023-06-24T12:06:14;27.30;94.60
31799;DHT22;18374;51.136;3.502;2023-06-24T12:08:42;27.30;95.20
31799;DHT22;18374;51.136;3.502;2023-06-24T12:11:19;27.30;94.30
31799;DHT22;18374;51.136;3.502;2023-06-24T12:13:47;27.20;94.60
31799;DHT22;18374;51.136;3.502;2023-06-24T12:16:14;27.20;93.80
31799;DHT22;18374;51.136;3.502;2023-06-24T12:18:42;26.80;94.80
31799;DHT22;18374;51.136;3.502;2023-06-24T12:21:10;26.70;96.30
31799;DHT22;18374;51.136;3.502;2023-06-24T12:23:38;26.80;95.20
31799;DHT22;18374;51.136;3.502;2023-06-24T12:26:06;26.80;95.80
31799;DHT22;18374;51.136;3.502;2023-06-24T12:28:33;26.90;95.70
31799;DHT22;18374;51.136;3.502;2023-06-24T12:31:01;27.00;94.80
31799;DHT22;18374;51.136;3.502;2023-06-24T12:33:33;27.20;93.80
31799;DHT22;18374;51.136;3.502;2023-06-24T12:36:00;27.30;94.30
31799;DHT22;18374;51.136;3.502;2023-06-24T12:38:28;27.40;94.60
31799;DHT22;18374;51.136;3.502;2023-06-24T12:40:57;27.60;94.20
31799;DHT22;18374;51.136;3.502;2023-06-24T12:43:25;27.50;93.10
31799;DHT22;18374;51.136;3.502;2023-06-24T12:45:53;27.40;93.10
31799;DHT22;18374;51.136;3.502;2023-06-24T12:48:20;27.40;92.60
31799;DHT22;18374;51.136;3.502;2023-06-24T12:50:48;27.50;92.80
31799;DHT22;18374;51.136;3.502;2023-06-24T12:53:20;27.40;91.50
31799;DHT22;18374;51.136;3.502;2023-06-24T12:55:49;27.20;91.40
31799;DHT22;18374;51.136;3.502;2023-06-24T12:58:23;27.10;92.60
31799;DHT22;18374;51.136;3.502;2023-06-24T13:00:52;27.40;93.70
31799;DHT22;18374;51.136;3.502;2023-06-24T13:03:20;27.80;92.10
31799;DHT22;18374;51.136;3.502;2023-06-24T13:05:47;28.10;91.10
31799;DHT22;18374;51.136;3.502;2023-06-24T13:08:15;28.20;92.30
31799;DHT22;18374;51.136;3.502;2023-06-24T13:10:43;28.10;91.40
31799;DHT22;18374;51.136;3.502;2023-06-24T13:13:11;28.20;92.30
31799;DHT22;18374;51.136;3.502;2023-06-24T13:15:38;28.30;91.50
31799;DHT22;18374;51.136;3.502;2023-06-24T13:18:06;28.40;90.30
31799;DHT22;18374;51.136;3.502;2023-06-24T13:20:34;28.30;90.90
31799;DHT22;18374;51.136;3.502;2023-06-24T13:23:02;28.40;92.00
31799;DHT22;18374;51.136;3.502;2023-06-24T13:25:30;28.40;90.90
31799;DHT22;18374;51.136;3.502;2023-06-24T13:27:59;28.40;90.90
31799;DHT22;18374;51.136;3.502;2023-06-24T13:30:26;28.50;91.00
31799;DHT22;18374;51.136;3.502;2023-06-24T13:32:54;28.40;91.80
31799;DHT22;18374;51.136;3.502;2023-06-24T13:35:22;28.30;90.00
31799;DHT22;18374;51.136;3.502;2023-06-24T13:37:50;28.00;91.00
31799;DHT22;18374;51.136;3.502;2023-06-24T13:40:18;28.00;89.50
31799;DHT22;18374;51.136;3.502;2023-06-24T13:42:45;28.00;91.00
31799;DHT22;18374;51.136;3.502;2023-06-24T13:45:13;27.70;87.50
31799;DHT22;18374;51.136;3.502;2023-06-24T13:47:41;27.60;90.50
31799;DHT22;18374;51.136;3.502;2023-06-24T13:50:09;27.60;93.30
31799;DHT22;18374;51.136;3.502;2023-06-24T13:52:37;27.80;91.30
31799;DHT22;18374;51.136;3.502;2023-06-24T13:55:05;27.80;90.60
31799;DHT22;18374;51.136;3.502;2023-06-24T13:57:33;27.80;91.30
31799;DHT22;18374;51.136;3.502;2023-06-24T14:00:01;27.90;90.70
31799;DHT22;18374;51.136;3.502;2023-06-24T14:02:39;28.00;90.40
31799;DHT22;18374;51.136;3.502;2023-06-24T14:05:08;28.00;90.30
31799;DHT22;18374;51.136;3.502;2023-06-24T14:07:36;27.90;91.40
31799;DHT22;18374;51.136;3.502;2023-06-24T14:10:04;27.90;90.70
31799;DHT22;18374;51.136;3.502;2023-06-24T14:12:32;27.90;91.30
31799;DHT22;18374;51.136;3.502;2023-06-24T14:15:00;27.80;91.10
31799;DHT22;18374;51.136;3.502;2023-06-24T14:17:28;27.90;91.60
31799;DHT22;18374;51.136;3.502;2023-06-24T14:19:56;28.00;90.90
31799;DHT22;18374;51.136;3.502;2023-06-24T14:22:24;28.20;90.10
31799;DHT22;18374;51.136;3.502;2023-06-24T14:24:53;28.20;88.30
31799;DHT22;18374;51.136;3.502;2023-06-24T14:27:21;28.20;91.00
31799;DHT22;18374;51.136;3.502;2023-06-24T14:29:49;28.50;89.00
31799;DHT22;18374;51.136;3.502;2023-06-24T14:32:16;28.60;90.50
31799;DHT22;18374;51.136;3.502;2023-06-24T14:34:44;28.60;90.60
31799;DHT22;18374;51.136;3.502;2023-06-24T14:37:12;28.60;87.50
31799;DHT22;18374;51.136;3.502;2023-06-24T14:39:40;28.60;87.20
31799;DHT22;18374;51.136;3.502;2023-06-24T14:42:08;28.40;85.70
31799;DHT22;18374;51.136;3.502;2023-06-24T14:44:36;28.20;90.30
31799;DHT22;18374;51.136;3.502;2023-06-24T14:47:04;28.20;93.30
31799;DHT22;18374;51.136;3.502;2023-06-24T14:49:31;28.10;92.80
31799;DHT22;18374;51.136;3.502;2023-06-24T14:51:59;28.10;93.70
31799;DHT22;18374;51.136;3.502;2023-06-24T14:54:27;28.00;92.90
31799;DHT22;18374;51.136;3.502;2023-06-24T14:56:54;27.80;93.70
31799;DHT22;18374;51.136;3.502;2023-06-24T14:59:22;27.60;95.60
31799;DHT22;18374;51.136;3.502;2023-06-24T15:01:50;27.40;95.20
31799;DHT22;18374;51.136;3.502;2023-06-24T15:04:18;27.10;97.70
31799;DHT22;18374;51.136;3.502;2023-06-24T15:06:49;27.00;98.50
31799;DHT22;18374;51.136;3.502;2023-06-24T15:09:17;26.80;98.80
31799;DHT22;18374;51.136;3.502;2023-06-24T15:11:45;26.70;99.90
31799;DHT22;18374;51.136;3.502;2023-06-24T15:14:12;26.80;99.80
31799;DHT22;18374;51.136;3.502;2023-06-24T15:16:40;26.50;99.90
31799;DHT22;18374;51.136;3.502;2023-06-24T15:19:08;26.40;99.90
31799;DHT22;18374;51.136;3.502;2023-06-24T15:21:36;26.00;99.90
31799;DHT22;18374;51.136;3.502;2023-06-24T15:24:04;25.80;99.90
31799;DHT22;18374;51.136;3.502;2023-06-24T15:26:32;25.70;99.90
31799;DHT22;18374;51.136;3.502;2023-06-24T15:28:59;25.50;99.90
31799;DHT22;18374;51.136;3.502;2023-06-24T15:31:27;25.30;99.90
31799;DHT22;18374;51.136;3.502;2023-06-24T15:33:55;25.20;99.90
31799;DHT22;18374;51.136;3.502;2023-06-24T15:36:23;25.30;99.90
31799;DHT22;18374;51.136;3.502;2023-06-24T15:38:54;25.40;99.90
31799;DHT22;18374;51.136;3.502;2023-06-24T15:41:22;25.50;99.90
31799;DHT22;18374;51.136;3.502;2023-06-24T15:43:50;25.40;99.90
31799;DHT22;18374;51.136;3.502;2023-06-24T15:46:18;25.30;99.90
31799;DHT22;18374;51.136;3.502;2023-06-24T15:48:46;25.20;99.90
31799;DHT22;18374;51.136;3.502;2023-06-24T15:51:14;25.30;99.90
31799;DHT22;18374;51.136;3.502;2023-06-24T15:53:41;25.30;99.90